sensor_id;sensor_type;location;lat;lon;timestamp;temperature;humidity
79698;SHT31;69168;42.708;23.286;2023-09-12T00:00:41;18.27;53.12
79698;SHT31;69168;42.708;23.286;2023-09-12T00:03:06;18.07;53.61
79698;SHT31;69168;42.708;23.286;2023-09-12T00:05:32;18.11;53.49
79698;SHT31;69168;42.708;23.286;2023-09-12T00:07:57;18.15;53.68
79698;SHT31;69168;42.708;23.286;2023-09-12T00:10:23;17.96;53.92
79698;SHT31;69168;42.708;23.286;2023-09-12T00:12:48;17.91;54.27
79698;SHT31;69168;42.708;23.286;2023-09-12T00:15:14;17.85;54.47
79698;SHT31;69168;42.708;23.286;2023-09-12T00:17:39;17.85;54.44
79698;SHT31;69168;42.708;23.286;2023-09-12T00:20:05;17.70;54.45
79698;SHT31;69168;42.708;23.286;2023-09-12T00:22:32;17.66;55.03
79698;SHT31;69168;42.708;23.286;2023-09-12T00:24:58;17.82;54.41
79698;SHT31;69168;42.708;23.286;2023-09-12T00:27:24;17.79;54.38
79698;SHT31;69168;42.708;23.286;2023-09-12T00:29:49;17.51;55.61
79698;SHT31;69168;42.708;23.286;2023-09-12T00:32:14;17.49;55.41
79698;SHT31;69168;42.708;23.286;2023-09-12T00:34:40;17.59;55.04
79698;SHT31;69168;42.708;23.286;2023-09-12T00:37:05;17.72;55.01
79698;SHT31;69168;42.708;23.286;2023-09-12T00:39:31;17.80;54.43
79698;SHT31;69168;42.708;23.286;2023-09-12T00:41:56;17.75;54.33
79698;SHT31;69168;42.708;23.286;2023-09-12T00:44:21;17.70;54.34
79698;SHT31;69168;42.708;23.286;2023-09-12T00:46:49;17.76;54.67
79698;SHT31;69168;42.708;23.286;2023-09-12T00:49:16;17.63;55.25
79698;SHT31;69168;42.708;23.286;2023-09-12T00:51:42;17.66;55.30
79698;SHT31;69168;42.708;23.286;2023-09-12T00:54:09;17.59;55.35
79698;SHT31;69168;42.708;23.286;2023-09-12T00:56:35;17.55;55.40
79698;SHT31;69168;42.708;23.286;2023-09-12T00:59:02;17.52;55.93
79698;SHT31;69168;42.708;23.286;2023-09-12T01:01:27;17.39;55.86
79698;SHT31;69168;42.708;23.286;2023-09-12T01:03:55;17.41;55.71
79698;SHT31;69168;42.708;23.286;2023-09-12T01:06:23;17.53;55.55
79698;SHT31;69168;42.708;23.286;2023-09-12T01:08:51;17.43;55.89
79698;SHT31;69168;42.708;23.286;2023-09-12T01:11:17;17.27;55.99
79698;SHT31;69168;42.708;23.286;2023-09-12T01:13:42;17.20;56.13
79698;SHT31;69168;42.708;23.286;2023-09-12T01:16:08;17.00;56.75
79698;SHT31;69168;42.708;23.286;2023-09-12T01:18:34;16.94;56.66
79698;SHT31;69168;42.708;23.286;2023-09-12T01:21:36;17.04;56.46
79698;SHT31;69168;42.708;23.286;2023-09-12T01:26:59;16.66;57.07
79698;SHT31;69168;42.708;23.286;2023-09-12T01:29:30;16.62;57.73
79698;SHT31;69168;42.708;23.286;2023-09-12T01:31:57;16.53;57.84
79698;SHT31;69168;42.708;23.286;2023-09-12T01:34:23;16.48;58.12
79698;SHT31;69168;42.708;23.286;2023-09-12T01:36:48;16.76;57.55
79698;SHT31;69168;42.708;23.286;2023-09-12T01:39:13;16.62;57.68
79698;SHT31;69168;42.708;23.286;2023-09-12T01:41:40;16.45;58.02
79698;SHT31;69168;42.708;23.286;2023-09-12T01:44:09;16.72;57.47
79698;SHT31;69168;42.708;23.286;2023-09-12T01:46:36;16.83;57.51
79698;SHT31;69168;42.708;23.286;2023-09-12T01:49:04;16.72;57.58
79698;SHT31;69168;42.708;23.286;2023-09-12T01:51:30;16.72;57.62
79698;SHT31;69168;42.708;23.286;2023-09-12T01:53:57;16.70;57.73
79698;SHT31;69168;42.708;23.286;2023-09-12T01:56:24;16.63;57.91
79698;SHT31;69168;42.708;23.286;2023-09-12T01:58:50;16.81;57.69
79698;SHT31;69168;42.708;23.286;2023-09-12T02:01:15;16.86;57.24
79698;SHT31;69168;42.708;23.286;2023-09-12T02:03:41;16.83;57.35
79698;SHT31;69168;42.708;23.286;2023-09-12T02:06:06;16.58;57.84
79698;SHT31;69168;42.708;23.286;2023-09-12T02:08:32;16.65;57.73
79698;SHT31;69168;42.708;23.286;2023-09-12T02:10:57;16.51;58.17
79698;SHT31;69168;42.708;23.286;2023-09-12T02:13:23;16.66;57.75
79698;SHT31;69168;42.708;23.286;2023-09-12T02:15:48;16.58;57.94
79698;SHT31;69168;42.708;23.286;2023-09-12T02:18:13;16.33;58.65
79698;SHT31;69168;42.708;23.286;2023-09-12T02:20:40;16.48;58.14
79698;SHT31;69168;42.708;23.286;2023-09-12T02:23:06;16.31;58.77
79698;SHT31;69168;42.708;23.286;2023-09-12T02:25:31;16.31;58.66
79698;SHT31;69168;42.708;23.286;2023-09-12T02:27:57;15.98;58.82
79698;SHT31;69168;42.708;23.286;2023-09-12T02:30:22;15.91;59.35
79698;SHT31;69168;42.708;23.286;2023-09-12T02:32:48;16.25;58.93
79698;SHT31;69168;42.708;23.286;2023-09-12T02:35:13;16.22;58.77
79698;SHT31;69168;42.708;23.286;2023-09-12T02:37:38;16.21;57.98
79698;SHT31;69168;42.708;23.286;2023-09-12T02:40:04;16.11;58.05
79698;SHT31;69168;42.708;23.286;2023-09-12T02:42:35;16.13;57.59
79698;SHT31;69168;42.708;23.286;2023-09-12T02:45:01;15.86;58.76
79698;SHT31;69168;42.708;23.286;2023-09-12T02:47:26;15.73;59.30
79698;SHT31;69168;42.708;23.286;2023-09-12T02:49:52;15.82;59.24
79698;SHT31;69168;42.708;23.286;2023-09-12T02:52:17;15.77;59.09
79698;SHT31;69168;42.708;23.286;2023-09-12T02:54:43;15.94;58.64
79698;SHT31;69168;42.708;23.286;2023-09-12T02:57:08;15.93;58.53
79698;SHT31;69168;42.708;23.286;2023-09-12T02:59:34;16.00;58.08
79698;SHT31;69168;42.708;23.286;2023-09-12T03:02:00;16.00;58.14
79698;SHT31;69168;42.708;23.286;2023-09-12T03:04:25;15.96;58.71
79698;SHT31;69168;42.708;23.286;2023-09-12T03:06:53;16.05;58.39
79698;SHT31;69168;42.708;23.286;2023-09-12T03:09:18;16.01;58.74
79698;SHT31;69168;42.708;23.286;2023-09-12T03:11:44;16.05;58.90
79698;SHT31;69168;42.708;23.286;2023-09-12T03:14:10;16.13;58.71
79698;SHT31;69168;42.708;23.286;2023-09-12T03:16:35;16.07;59.30
79698;SHT31;69168;42.708;23.286;2023-09-12T03:19:03;15.89;59.80
79698;SHT31;69168;42.708;23.286;2023-09-12T03:21:28;15.90;59.79
79698;SHT31;69168;42.708;23.286;2023-09-12T03:23:54;15.96;59.39
79698;SHT31;69168;42.708;23.286;2023-09-12T03:26:19;15.90;59.79
79698;SHT31;69168;42.708;23.286;2023-09-12T03:28:45;15.85;60.05
79698;SHT31;69168;42.708;23.286;2023-09-12T03:31:12;15.83;60.26
79698;SHT31;69168;42.708;23.286;2023-09-12T03:33:38;15.63;60.59
79698;SHT31;69168;42.708;23.286;2023-09-12T03:36:05;15.71;60.58
79698;SHT31;69168;42.708;23.286;2023-09-12T03:38:31;15.49;61.01
79698;SHT31;69168;42.708;23.286;2023-09-12T03:40:57;15.60;60.58
79698;SHT31;69168;42.708;23.286;2023-09-12T03:43:22;15.53;60.58
79698;SHT31;69168;42.708;23.286;2023-09-12T03:45:47;15.22;61.33
79698;SHT31;69168;42.708;23.286;2023-09-12T03:48:14;15.17;61.49
79698;SHT31;69168;42.708;23.286;2023-09-12T03:50:39;15.03;61.59
79698;SHT31;69168;42.708;23.286;2023-09-12T03:53:05;15.12;61.54
79698;SHT31;69168;42.708;23.286;2023-09-12T03:55:30;15.35;61.05
79698;SHT31;69168;42.708;23.286;2023-09-12T03:57:56;15.36;60.82
79698;SHT31;69168;42.708;23.286;2023-09-12T04:00:21;15.46;61.02
79698;SHT31;69168;42.708;23.286;2023-09-12T04:02:47;15.30;61.30
79698;SHT31;69168;42.708;23.286;2023-09-12T04:05:13;15.41;61.01
79698;SHT31;69168;42.708;23.286;2023-09-12T04:07:38;15.45;61.01
79698;SHT31;69168;42.708;23.286;2023-09-12T04:10:04;15.45;61.03
79698;SHT31;69168;42.708;23.286;2023-09-12T04:12:30;15.45;60.89
79698;SHT31;69168;42.708;23.286;2023-09-12T04:14:55;15.32;61.24
79698;SHT31;69168;42.708;23.286;2023-09-12T04:17:21;15.34;61.23
79698;SHT31;69168;42.708;23.286;2023-09-12T04:19:46;15.38;61.34
79698;SHT31;69168;42.708;23.286;2023-09-12T04:22:12;15.48;61.01
79698;SHT31;69168;42.708;23.286;2023-09-12T04:24:37;15.39;61.28
79698;SHT31;69168;42.708;23.286;2023-09-12T04:27:03;15.39;61.31
79698;SHT31;69168;42.708;23.286;2023-09-12T04:29:28;15.38;61.38
79698;SHT31;69168;42.708;23.286;2023-09-12T04:31:54;15.39;61.44
79698;SHT31;69168;42.708;23.286;2023-09-12T04:34:25;15.45;61.26
79698;SHT31;69168;42.708;23.286;2023-09-12T04:36:51;15.52;60.99
79698;SHT31;69168;42.708;23.286;2023-09-12T04:39:17;15.53;61.03
79698;SHT31;69168;42.708;23.286;2023-09-12T04:41:42;15.58;60.86
79698;SHT31;69168;42.708;23.286;2023-09-12T04:44:07;15.53;61.20
79698;SHT31;69168;42.708;23.286;2023-09-12T04:46:33;15.55;61.07
79698;SHT31;69168;42.708;23.286;2023-09-12T04:48:59;15.45;61.19
79698;SHT31;69168;42.708;23.286;2023-09-12T04:51:24;15.46;61.27
79698;SHT31;69168;42.708;23.286;2023-09-12T04:53:52;15.43;61.68
79698;SHT31;69168;42.708;23.286;2023-09-12T04:56:17;15.56;61.22
79698;SHT31;69168;42.708;23.286;2023-09-12T04:58:43;15.52;61.40
79698;SHT31;69168;42.708;23.286;2023-09-12T05:01:08;15.53;60.86
79698;SHT31;69168;42.708;23.286;2023-09-12T05:03:34;15.25;62.15
79698;SHT31;69168;42.708;23.286;2023-09-12T05:06:00;15.28;61.84
79698;SHT31;69168;42.708;23.286;2023-09-12T05:08:25;15.34;61.84
79698;SHT31;69168;42.708;23.286;2023-09-12T05:10:51;15.32;62.14
79698;SHT31;69168;42.708;23.286;2023-09-12T05:13:16;15.42;61.65
79698;SHT31;69168;42.708;23.286;2023-09-12T05:15:42;15.56;61.32
79698;SHT31;69168;42.708;23.286;2023-09-12T05:18:08;15.49;61.59
79698;SHT31;69168;42.708;23.286;2023-09-12T05:20:34;15.56;61.27
79698;SHT31;69168;42.708;23.286;2023-09-12T05:22:59;15.70;61.18
79698;SHT31;69168;42.708;23.286;2023-09-12T05:25:25;15.71;61.27
79698;SHT31;69168;42.708;23.286;2023-09-12T05:27:51;15.80;61.15
79698;SHT31;69168;42.708;23.286;2023-09-12T05:30:17;15.82;60.66
79698;SHT31;69168;42.708;23.286;2023-09-12T05:32:43;15.74;61.05
79698;SHT31;69168;42.708;23.286;2023-09-12T05:35:08;15.85;60.76
79698;SHT31;69168;42.708;23.286;2023-09-12T05:37:33;15.91;60.54
79698;SHT31;69168;42.708;23.286;2023-09-12T05:39:59;15.98;59.64
79698;SHT31;69168;42.708;23.286;2023-09-12T05:42:24;15.91;60.41
79698;SHT31;69168;42.708;23.286;2023-09-12T05:44:50;15.98;58.79
79698;SHT31;69168;42.708;23.286;2023-09-12T05:47:19;16.18;58.25
79698;SHT31;69168;42.708;23.286;2023-09-12T05:49:44;16.20;58.95
79698;SHT31;69168;42.708;23.286;2023-09-12T05:52:10;16.13;58.96
79698;SHT31;69168;42.708;23.286;2023-09-12T05:54:36;16.10;58.72
79698;SHT31;69168;42.708;23.286;2023-09-12T05:57:01;16.28;58.20
79698;SHT31;69168;42.708;23.286;2023-09-12T05:59:27;16.44;58.04
79698;SHT31;69168;42.708;23.286;2023-09-12T06:01:53;16.55;57.98
79698;SHT31;69168;42.708;23.286;2023-09-12T06:04:18;16.65;58.16
79698;SHT31;69168;42.708;23.286;2023-09-12T06:06:45;16.70;57.88
79698;SHT31;69168;42.708;23.286;2023-09-12T06:09:10;16.73;58.17
79698;SHT31;69168;42.708;23.286;2023-09-12T06:11:36;16.81;57.53
79698;SHT31;69168;42.708;23.286;2023-09-12T06:14:01;16.76;58.09
79698;SHT31;69168;42.708;23.286;2023-09-12T06:16:26;16.77;57.50
79698;SHT31;69168;42.708;23.286;2023-09-12T06:18:52;16.76;57.40
79698;SHT31;69168;42.708;23.286;2023-09-12T06:21:19;16.81;57.35
79698;SHT31;69168;42.708;23.286;2023-09-12T06:24:07;16.93;57.09
79698;SHT31;69168;42.708;23.286;2023-09-12T06:26:32;17.17;56.72
79698;SHT31;69168;42.708;23.286;2023-09-12T06:28:59;16.96;56.74
79698;SHT31;69168;42.708;23.286;2023-09-12T06:31:24;17.00;56.81
79698;SHT31;69168;42.708;23.286;2023-09-12T06:33:49;17.04;56.16
79698;SHT31;69168;42.708;23.286;2023-09-12T06:36:15;17.15;56.15
79698;SHT31;69168;42.708;23.286;2023-09-12T06:38:40;17.32;55.59
79698;SHT31;69168;42.708;23.286;2023-09-12T06:41:06;17.39;55.72
79698;SHT31;69168;42.708;23.286;2023-09-12T06:43:31;17.42;56.16
79698;SHT31;69168;42.708;23.286;2023-09-12T06:45:57;17.56;55.09
79698;SHT31;69168;42.708;23.286;2023-09-12T06:48:22;17.65;54.53
79698;SHT31;69168;42.708;23.286;2023-09-12T06:50:47;17.85;53.15
79698;SHT31;69168;42.708;23.286;2023-09-12T06:53:13;17.79;53.57
79698;SHT31;69168;42.708;23.286;2023-09-12T06:55:38;17.75;53.21
79698;SHT31;69168;42.708;23.286;2023-09-12T06:58:04;17.87;53.58
79698;SHT31;69168;42.708;23.286;2023-09-12T07:00:30;17.96;53.43
79698;SHT31;69168;42.708;23.286;2023-09-12T07:02:56;18.11;52.78
79698;SHT31;69168;42.708;23.286;2023-09-12T07:05:21;18.14;52.54
79698;SHT31;69168;42.708;23.286;2023-09-12T07:07:47;18.18;52.67
79698;SHT31;69168;42.708;23.286;2023-09-12T07:10:12;18.04;52.71
79698;SHT31;69168;42.708;23.286;2023-09-12T07:12:38;18.10;52.39
79698;SHT31;69168;42.708;23.286;2023-09-12T07:15:03;17.94;52.34
79698;SHT31;69168;42.708;23.286;2023-09-12T07:17:29;17.97;52.34
79698;SHT31;69168;42.708;23.286;2023-09-12T07:19:54;18.03;51.82
79698;SHT31;69168;42.708;23.286;2023-09-12T07:22:20;18.11;51.94
79698;SHT31;69168;42.708;23.286;2023-09-12T07:24:45;18.27;51.54
79698;SHT31;69168;42.708;23.286;2023-09-12T07:27:11;18.33;51.48
79698;SHT31;69168;42.708;23.286;2023-09-12T07:29:37;18.42;51.43
79698;SHT31;69168;42.708;23.286;2023-09-12T07:32:02;18.49;50.69
79698;SHT31;69168;42.708;23.286;2023-09-12T07:34:28;18.58;50.61
79698;SHT31;69168;42.708;23.286;2023-09-12T07:36:53;18.72;50.61
79698;SHT31;69168;42.708;23.286;2023-09-12T07:39:19;18.69;49.86
79698;SHT31;69168;42.708;23.286;2023-09-12T07:41:44;18.70;49.79
79698;SHT31;69168;42.708;23.286;2023-09-12T07:44:10;18.75;49.99
79698;SHT31;69168;42.708;23.286;2023-09-12T07:46:41;18.72;50.29
79698;SHT31;69168;42.708;23.286;2023-09-12T07:49:06;18.76;50.21
79698;SHT31;69168;42.708;23.286;2023-09-12T07:51:34;18.83;50.49
79698;SHT31;69168;42.708;23.286;2023-09-12T07:54:00;18.92;50.13
79698;SHT31;69168;42.708;23.286;2023-09-12T07:56:26;19.03;49.94
79698;SHT31;69168;42.708;23.286;2023-09-12T07:58:51;19.07;49.48
79698;SHT31;69168;42.708;23.286;2023-09-12T08:01:17;19.27;48.73
79698;SHT31;69168;42.708;23.286;2023-09-12T08:03:42;19.24;47.77
79698;SHT31;69168;42.708;23.286;2023-09-12T08:06:08;19.28;47.96
79698;SHT31;69168;42.708;23.286;2023-09-12T08:08:34;19.35;48.06
79698;SHT31;69168;42.708;23.286;2023-09-12T08:11:00;19.41;46.84
79698;SHT31;69168;42.708;23.286;2023-09-12T08:13:26;19.59;46.56
79698;SHT31;69168;42.708;23.286;2023-09-12T08:15:56;19.68;46.24
79698;SHT31;69168;42.708;23.286;2023-09-12T08:18:21;19.80;45.66
79698;SHT31;69168;42.708;23.286;2023-09-12T08:20:47;19.85;46.33
79698;SHT31;69168;42.708;23.286;2023-09-12T08:23:13;19.82;45.41
79698;SHT31;69168;42.708;23.286;2023-09-12T08:25:39;19.85;45.97
79698;SHT31;69168;42.708;23.286;2023-09-12T08:28:07;19.90;46.27
79698;SHT31;69168;42.708;23.286;2023-09-12T08:30:33;20.14;45.31
79698;SHT31;69168;42.708;23.286;2023-09-12T08:32:58;20.18;45.31
79698;SHT31;69168;42.708;23.286;2023-09-12T08:35:24;20.14;45.52
79698;SHT31;69168;42.708;23.286;2023-09-12T08:37:51;20.34;44.72
79698;SHT31;69168;42.708;23.286;2023-09-12T08:40:17;20.38;44.62
79698;SHT31;69168;42.708;23.286;2023-09-12T08:42:44;20.35;44.78
79698;SHT31;69168;42.708;23.286;2023-09-12T08:45:13;20.37;45.35
79698;SHT31;69168;42.708;23.286;2023-09-12T08:47:44;20.51;44.90
79698;SHT31;69168;42.708;23.286;2023-09-12T08:50:14;20.61;44.30
79698;SHT31;69168;42.708;23.286;2023-09-12T08:52:42;20.96;42.57
79698;SHT31;69168;42.708;23.286;2023-09-12T08:55:09;20.75;43.06
79698;SHT31;69168;42.708;23.286;2023-09-12T08:57:37;20.71;44.07
79698;SHT31;69168;42.708;23.286;2023-09-12T09:00:04;20.75;44.02
79698;SHT31;69168;42.708;23.286;2023-09-12T09:02:40;20.79;44.24
79698;SHT31;69168;42.708;23.286;2023-09-12T09:05:07;20.83;44.36
79698;SHT31;69168;42.708;23.286;2023-09-12T09:07:41;20.93;43.27
79698;SHT31;69168;42.708;23.286;2023-09-12T09:10:14;21.00;43.36
79698;SHT31;69168;42.708;23.286;2023-09-12T09:12:40;21.11;42.21
79698;SHT31;69168;42.708;23.286;2023-09-12T09:15:28;21.07;42.11
79698;SHT31;69168;42.708;23.286;2023-09-12T09:17:55;21.13;42.44
79698;SHT31;69168;42.708;23.286;2023-09-12T09:20:23;21.27;44.03
79698;SHT31;69168;42.708;23.286;2023-09-12T09:23:08;21.45;43.30
79698;SHT31;69168;42.708;23.286;2023-09-12T09:25:42;21.59;43.39
79698;SHT31;69168;42.708;23.286;2023-09-12T09:28:18;21.66;42.51
79698;SHT31;69168;42.708;23.286;2023-09-12T09:30:49;21.82;41.17
79698;SHT31;69168;42.708;23.286;2023-09-12T09:33:16;21.92;40.92
79698;SHT31;69168;42.708;23.286;2023-09-12T09:35:42;22.10;40.87
79698;SHT31;69168;42.708;23.286;2023-09-12T09:38:08;22.19;40.62
79698;SHT31;69168;42.708;23.286;2023-09-12T09:40:35;22.27;40.86
79698;SHT31;69168;42.708;23.286;2023-09-12T09:43:02;22.24;39.86
79698;SHT31;69168;42.708;23.286;2023-09-12T09:45:29;22.33;39.65
79698;SHT31;69168;42.708;23.286;2023-09-12T09:48:04;22.43;39.37
79698;SHT31;69168;42.708;23.286;2023-09-12T09:50:33;22.51;39.89
79698;SHT31;69168;42.708;23.286;2023-09-12T09:53:02;22.75;38.81
79698;SHT31;69168;42.708;23.286;2023-09-12T09:55:30;22.89;38.61
79698;SHT31;69168;42.708;23.286;2023-09-12T09:57:55;22.94;37.86
79698;SHT31;69168;42.708;23.286;2023-09-12T10:00:22;22.89;38.55
79698;SHT31;69168;42.708;23.286;2023-09-12T10:02:49;23.02;39.17
79698;SHT31;69168;42.708;23.286;2023-09-12T10:05:16;23.15;39.39
79698;SHT31;69168;42.708;23.286;2023-09-12T10:07:47;23.31;38.61
79698;SHT31;69168;42.708;23.286;2023-09-12T10:10:13;23.54;38.81
79698;SHT31;69168;42.708;23.286;2023-09-12T10:12:45;23.84;37.34
79698;SHT31;69168;42.708;23.286;2023-09-12T10:15:14;23.88;37.14
79698;SHT31;69168;42.708;23.286;2023-09-12T10:17:42;23.86;37.92
79698;SHT31;69168;42.708;23.286;2023-09-12T10:20:15;24.05;37.86
79698;SHT31;69168;42.708;23.286;2023-09-12T10:22:49;24.16;36.33
79698;SHT31;69168;42.708;23.286;2023-09-12T10:25:17;24.22;36.92
79698;SHT31;69168;42.708;23.286;2023-09-12T10:27:42;24.59;35.74
79698;SHT31;69168;42.708;23.286;2023-09-12T10:30:08;24.50;35.53
79698;SHT31;69168;42.708;23.286;2023-09-12T10:32:34;24.50;36.24
79698;SHT31;69168;42.708;23.286;2023-09-12T10:35:02;24.67;36.79
79698;SHT31;69168;42.708;23.286;2023-09-12T10:37:29;24.95;36.66
79698;SHT31;69168;42.708;23.286;2023-09-12T10:39:56;25.07;36.11
79698;SHT31;69168;42.708;23.286;2023-09-12T10:42:24;25.18;35.39
79698;SHT31;69168;42.708;23.286;2023-09-12T10:44:51;25.32;35.80
79698;SHT31;69168;42.708;23.286;2023-09-12T10:47:17;25.51;35.27
79698;SHT31;69168;42.708;23.286;2023-09-12T10:49:44;25.60;34.96
79698;SHT31;69168;42.708;23.286;2023-09-12T10:52:10;25.84;34.59
79698;SHT31;69168;42.708;23.286;2023-09-12T10:54:38;25.91;34.06
79698;SHT31;69168;42.708;23.286;2023-09-12T10:57:11;26.12;34.30
79698;SHT31;69168;42.708;23.286;2023-09-12T11:02:34;26.52;33.90
79698;SHT31;69168;42.708;23.286;2023-09-12T11:05:02;26.74;33.10
79698;SHT31;69168;42.708;23.286;2023-09-12T11:12:39;27.25;31.31
79698;SHT31;69168;42.708;23.286;2023-09-12T11:15:06;27.15;31.77
79698;SHT31;69168;42.708;23.286;2023-09-12T11:17:37;27.38;32.84
79698;SHT31;69168;42.708;23.286;2023-09-12T11:20:03;27.48;32.30
79698;SHT31;69168;42.708;23.286;2023-09-12T11:22:36;27.53;31.95
79698;SHT31;69168;42.708;23.286;2023-09-12T11:25:03;27.90;30.74
79698;SHT31;69168;42.708;23.286;2023-09-12T11:27:43;28.07;30.33
79698;SHT31;69168;42.708;23.286;2023-09-12T11:30:09;28.25;29.97
79698;SHT31;69168;42.708;23.286;2023-09-12T11:32:36;28.38;30.31
79698;SHT31;69168;42.708;23.286;2023-09-12T11:35:06;28.11;29.21
79698;SHT31;69168;42.708;23.286;2023-09-12T11:37:32;28.05;29.35
79698;SHT31;69168;42.708;23.286;2023-09-12T11:39:58;28.15;29.51
79698;SHT31;69168;42.708;23.286;2023-09-12T11:42:24;28.37;29.28
79698;SHT31;69168;42.708;23.286;2023-09-12T11:44:53;28.39;29.31
79698;SHT31;69168;42.708;23.286;2023-09-12T11:47:19;28.48;28.70
79698;SHT31;69168;42.708;23.286;2023-09-12T11:49:45;28.49;28.63
79698;SHT31;69168;42.708;23.286;2023-09-12T11:52:14;28.47;28.62
79698;SHT31;69168;42.708;23.286;2023-09-12T11:54:42;28.66;28.18
79698;SHT31;69168;42.708;23.286;2023-09-12T11:57:09;28.96;27.85
79698;SHT31;69168;42.708;23.286;2023-09-12T11:59:38;28.86;27.71
79698;SHT31;69168;42.708;23.286;2023-09-12T12:02:07;29.13;27.69
79698;SHT31;69168;42.708;23.286;2023-09-12T12:04:34;29.58;28.35
79698;SHT31;69168;42.708;23.286;2023-09-12T12:07:01;30.14;27.78
79698;SHT31;69168;42.708;23.286;2023-09-12T12:09:27;30.44;27.84
79698;SHT31;69168;42.708;23.286;2023-09-12T12:11:52;30.57;26.65
79698;SHT31;69168;42.708;23.286;2023-09-12T12:14:18;30.55;25.87
79698;SHT31;69168;42.708;23.286;2023-09-12T12:16:45;30.58;24.87
79698;SHT31;69168;42.708;23.286;2023-09-12T12:19:12;30.78;24.90
79698;SHT31;69168;42.708;23.286;2023-09-12T12:21:39;30.89;25.14
79698;SHT31;69168;42.708;23.286;2023-09-12T12:24:07;31.37;25.18
79698;SHT31;69168;42.708;23.286;2023-09-12T12:26:33;31.71;24.94
79698;SHT31;69168;42.708;23.286;2023-09-12T12:28:59;31.71;24.77
79698;SHT31;69168;42.708;23.286;2023-09-12T12:31:25;32.16;24.30
79698;SHT31;69168;42.708;23.286;2023-09-12T12:33:56;32.41;23.51
79698;SHT31;69168;42.708;23.286;2023-09-12T12:36:22;32.40;24.23
79698;SHT31;69168;42.708;23.286;2023-09-12T12:38:48;32.41;22.95
79698;SHT31;69168;42.708;23.286;2023-09-12T12:41:22;32.50;23.82
79698;SHT31;69168;42.708;23.286;2023-09-12T12:43:52;32.02;24.45
79698;SHT31;69168;42.708;23.286;2023-09-12T12:46:18;32.33;23.89
79698;SHT31;69168;42.708;23.286;2023-09-12T12:48:47;32.71;23.46
79698;SHT31;69168;42.708;23.286;2023-09-12T12:51:33;32.78;23.68
79698;SHT31;69168;42.708;23.286;2023-09-12T12:54:10;32.74;23.37
79698;SHT31;69168;42.708;23.286;2023-09-12T12:56:35;32.60;23.47
79698;SHT31;69168;42.708;23.286;2023-09-12T12:59:03;33.05;23.44
79698;SHT31;69168;42.708;23.286;2023-09-12T13:01:29;32.86;23.61
79698;SHT31;69168;42.708;23.286;2023-09-12T13:03:55;33.18;23.61
79698;SHT31;69168;42.708;23.286;2023-09-12T13:06:22;33.40;23.58
79698;SHT31;69168;42.708;23.286;2023-09-12T13:08:49;33.39;23.11
79698;SHT31;69168;42.708;23.286;2023-09-12T13:11:16;33.01;22.56
79698;SHT31;69168;42.708;23.286;2023-09-12T13:13:42;33.46;22.63
79698;SHT31;69168;42.708;23.286;2023-09-12T13:16:09;33.70;22.50
79698;SHT31;69168;42.708;23.286;2023-09-12T13:18:36;33.58;21.98
79698;SHT31;69168;42.708;23.286;2023-09-12T13:21:02;34.16;21.20
79698;SHT31;69168;42.708;23.286;2023-09-12T13:23:28;34.22;21.43
79698;SHT31;69168;42.708;23.286;2023-09-12T13:25:54;34.26;21.25
79698;SHT31;69168;42.708;23.286;2023-09-12T13:28:20;34.23;21.64
79698;SHT31;69168;42.708;23.286;2023-09-12T13:30:45;34.38;22.14
79698;SHT31;69168;42.708;23.286;2023-09-12T13:33:12;34.49;21.70
79698;SHT31;69168;42.708;23.286;2023-09-12T13:35:40;34.06;21.78
79698;SHT31;69168;42.708;23.286;2023-09-12T13:38:06;34.42;22.14
79698;SHT31;69168;42.708;23.286;2023-09-12T13:40:38;34.95;20.87
79698;SHT31;69168;42.708;23.286;2023-09-12T13:43:07;34.91;21.08
79698;SHT31;69168;42.708;23.286;2023-09-12T13:45:34;34.83;21.24
79698;SHT31;69168;42.708;23.286;2023-09-12T13:48:02;35.04;20.74
79698;SHT31;69168;42.708;23.286;2023-09-12T13:50:28;34.98;21.17
79698;SHT31;69168;42.708;23.286;2023-09-12T13:52:54;34.68;20.67
79698;SHT31;69168;42.708;23.286;2023-09-12T13:55:21;34.57;20.88
79698;SHT31;69168;42.708;23.286;2023-09-12T13:57:46;34.25;21.10
79698;SHT31;69168;42.708;23.286;2023-09-12T14:00:12;33.93;21.23
79698;SHT31;69168;42.708;23.286;2023-09-12T14:02:38;34.12;21.12
79698;SHT31;69168;42.708;23.286;2023-09-12T14:05:03;34.16;21.61
79698;SHT31;69168;42.708;23.286;2023-09-12T14:07:29;34.46;21.23
79698;SHT31;69168;42.708;23.286;2023-09-12T14:09:54;34.71;21.44
79698;SHT31;69168;42.708;23.286;2023-09-12T14:12:24;35.27;20.87
79698;SHT31;69168;42.708;23.286;2023-09-12T14:14:51;35.19;21.00
79698;SHT31;69168;42.708;23.286;2023-09-12T14:17:17;35.42;20.76
79698;SHT31;69168;42.708;23.286;2023-09-12T14:19:43;35.72;20.43
79698;SHT31;69168;42.708;23.286;2023-09-12T14:22:08;35.75;20.29
79698;SHT31;69168;42.708;23.286;2023-09-12T14:24:34;35.75;20.59
79698;SHT31;69168;42.708;23.286;2023-09-12T14:26:59;35.89;20.68
79698;SHT31;69168;42.708;23.286;2023-09-12T14:29:25;35.67;20.79
79698;SHT31;69168;42.708;23.286;2023-09-12T14:31:53;35.43;20.68
79698;SHT31;69168;42.708;23.286;2023-09-12T14:34:26;35.37;21.07
79698;SHT31;69168;42.708;23.286;2023-09-12T14:36:57;35.60;20.75
79698;SHT31;69168;42.708;23.286;2023-09-12T14:39:23;35.69;20.79
79698;SHT31;69168;42.708;23.286;2023-09-12T14:41:49;35.63;21.07
79698;SHT31;69168;42.708;23.286;2023-09-12T14:44:18;35.69;21.00
79698;SHT31;69168;42.708;23.286;2023-09-12T14:46:44;35.73;20.53
79698;SHT31;69168;42.708;23.286;2023-09-12T14:49:09;35.77;20.52
79698;SHT31;69168;42.708;23.286;2023-09-12T14:51:36;35.76;20.25
79698;SHT31;69168;42.708;23.286;2023-09-12T14:54:04;35.72;20.29
79698;SHT31;69168;42.708;23.286;2023-09-12T14:56:31;35.45;20.48
79698;SHT31;69168;42.708;23.286;2023-09-12T14:58:56;35.03;20.80
79698;SHT31;69168;42.708;23.286;2023-09-12T15:01:22;35.19;20.88
79698;SHT31;69168;42.708;23.286;2023-09-12T15:03:50;35.28;20.77
79698;SHT31;69168;42.708;23.286;2023-09-12T15:06:18;35.14;20.95
79698;SHT31;69168;42.708;23.286;2023-09-12T15:08:44;34.91;20.33
79698;SHT31;69168;42.708;23.286;2023-09-12T15:11:09;35.07;20.48
79698;SHT31;69168;42.708;23.286;2023-09-12T15:13:35;34.94;20.61
79698;SHT31;69168;42.708;23.286;2023-09-12T15:16:01;34.74;20.48
79698;SHT31;69168;42.708;23.286;2023-09-12T15:18:27;34.79;20.68
79698;SHT31;69168;42.708;23.286;2023-09-12T15:20:53;34.76;20.84
79698;SHT31;69168;42.708;23.286;2023-09-12T15:23:19;34.61;20.88